sensor_id;sensor_type;location;lat;lon;timestamp;P1;durP1;ratioP1;P2;durP2;ratioP2
81591;SDS011;71014;53.394;6.724;2023-07-31T00:02:21;3.38;;;2.65;;
81591;SDS011;71014;53.394;6.724;2023-07-31T00:04:47;4.40;;;3.22;;
81591;SDS011;71014;53.394;6.724;2023-07-31T00:07:14;3.53;;;2.85;;
81591;SDS011;71014;53.394;6.724;2023-07-31T00:09:40;4.32;;;2.85;;
81591;SDS011;71014;53.394;6.724;2023-07-31T00:12:06;4.10;;;2.75;;
81591;SDS011;71014;53.394;6.724;2023-07-31T00:14:32;4.30;;;3.20;;
81591;SDS011;71014;53.394;6.724;2023-07-31T00:16:58;5.82;;;2.95;;
81591;SDS011;71014;53.394;6.724;2023-07-31T00:19:24;5.60;;;3.33;;
81591;SDS011;71014;53.394;6.724;2023-07-31T00:21:50;5.38;;;3.72;;
81591;SDS011;71014;53.394;6.724;2023-07-31T00:24:16;5.10;;;3.40;;
81591;SDS011;71014;53.394;6.724;2023-07-31T00:26:42;5.15;;;3.35;;
81591;SDS011;71014;53.394;6.724;2023-07-31T00:29:08;4.13;;;3.45;;
81591;SDS011;71014;53.394;6.724;2023-07-31T00:31:34;3.55;;;2.83;;
81591;SDS011;71014;53.394;6.724;2023-07-31T00:34:00;5.97;;;3.33;;
81591;SDS011;71014;53.394;6.724;2023-07-31T00:36:26;5.82;;;3.35;;
81591;SDS011;71014;53.394;6.724;2023-07-31T00:38:52;6.35;;;3.80;;
81591;SDS011;71014;53.394;6.724;2023-07-31T00:41:18;4.35;;;3.40;;
81591;SDS011;71014;53.394;6.724;2023-07-31T00:43:44;7.25;;;3.70;;
81591;SDS011;71014;53.394;6.724;2023-07-31T00:46:10;5.55;;;4.20;;
81591;SDS011;71014;53.394;6.724;2023-07-31T00:48:36;7.50;;;4.05;;
81591;SDS011;71014;53.394;6.724;2023-07-31T00:51:03;4.75;;;3.70;;
81591;SDS011;71014;53.394;6.724;2023-07-31T00:53:29;5.38;;;4.53;;
81591;SDS011;71014;53.394;6.724;2023-07-31T00:55:55;7.68;;;3.97;;
81591;SDS011;71014;53.394;6.724;2023-07-31T00:58:21;6.57;;;3.85;;
81591;SDS011;71014;53.394;6.724;2023-07-31T01:00:49;4.47;;;3.65;;
81591;SDS011;71014;53.394;6.724;2023-07-31T01:03:16;3.80;;;2.80;;
81591;SDS011;71014;53.394;6.724;2023-07-31T01:05:49;4.05;;;3.50;;
81591;SDS011;71014;53.394;6.724;2023-07-31T01:09:00;3.70;;;3.20;;
81591;SDS011;71014;53.394;6.724;2023-07-31T01:11:16;3.53;;;2.72;;
81591;SDS011;71014;53.394;6.724;2023-07-31T01:13:44;3.58;;;2.90;;
81591;SDS011;71014;53.394;6.724;2023-07-31T01:16:10;3.72;;;2.88;;
81591;SDS011;71014;53.394;6.724;2023-07-31T01:18:36;5.03;;;3.00;;
81591;SDS011;71014;53.394;6.724;2023-07-31T01:21:38;2.97;;;2.65;;
81591;SDS011;71014;53.394;6.724;2023-07-31T01:26:39;2.97;;;2.38;;
81591;SDS011;71014;53.394;6.724;2023-07-31T01:31:32;3.60;;;1.95;;
81591;SDS011;71014;53.394;6.724;2023-07-31T01:33:59;2.15;;;1.65;;
81591;SDS011;71014;53.394;6.724;2023-07-31T01:36:26;2.47;;;1.88;;
81591;SDS011;71014;53.394;6.724;2023-07-31T01:38:52;3.03;;;1.95;;
81591;SDS011;71014;53.394;6.724;2023-07-31T01:41:23;2.50;;;2.28;;
81591;SDS011;71014;53.394;6.724;2023-07-31T01:43:49;2.92;;;2.17;;
81591;SDS011;71014;53.394;6.724;2023-07-31T01:46:15;3.22;;;2.72;;
81591;SDS011;71014;53.394;6.724;2023-07-31T01:48:41;3.47;;;2.72;;
81591;SDS011;71014;53.394;6.724;2023-07-31T01:51:07;3.75;;;2.85;;
81591;SDS011;71014;53.394;6.724;2023-07-31T01:53:33;4.35;;;3.22;;
81591;SDS011;71014;53.394;6.724;2023-07-31T01:55:59;3.85;;;2.53;;
81591;SDS011;71014;53.394;6.724;2023-07-31T01:58:25;3.88;;;2.40;;
81591;SDS011;71014;53.394;6.724;2023-07-31T02:00:51;3.25;;;2.30;;
81591;SDS011;71014;53.394;6.724;2023-07-31T02:03:17;3.25;;;2.08;;
81591;SDS011;71014;53.394;6.724;2023-07-31T02:05:43;1.98;;;1.77;;
81591;SDS011;71014;53.394;6.724;2023-07-31T02:10:35;2.58;;;1.75;;
81591;SDS011;71014;53.394;6.724;2023-07-31T02:13:01;2.80;;;2.15;;
81591;SDS011;71014;53.394;6.724;2023-07-31T02:15:29;2.80;;;2.50;;
81591;SDS011;71014;53.394;6.724;2023-07-31T02:17:55;3.03;;;1.88;;
81591;SDS011;71014;53.394;6.724;2023-07-31T02:20:21;3.08;;;1.80;;
81591;SDS011;71014;53.394;6.724;2023-07-31T02:22:47;3.13;;;2.80;;
81591;SDS011;71014;53.394;6.724;2023-07-31T02:25:13;2.05;;;1.90;;
81591;SDS011;71014;53.394;6.724;2023-07-31T02:27:39;2.65;;;2.40;;
81591;SDS011;71014;53.394;6.724;2023-07-31T02:30:05;3.08;;;2.08;;
81591;SDS011;71014;53.394;6.724;2023-07-31T02:32:31;3.53;;;3.00;;
81591;SDS011;71014;53.394;6.724;2023-07-31T02:34:57;6.72;;;3.08;;
81591;SDS011;71014;53.394;6.724;2023-07-31T02:37:23;2.28;;;2.10;;
81591;SDS011;71014;53.394;6.724;2023-07-31T02:39:49;4.43;;;3.10;;
81591;SDS011;71014;53.394;6.724;2023-07-31T02:42:15;4.75;;;2.50;;
81591;SDS011;71014;53.394;6.724;2023-07-31T02:44:41;2.67;;;2.00;;
81591;SDS011;71014;53.394;6.724;2023-07-31T02:47:07;5.13;;;2.88;;
81591;SDS011;71014;53.394;6.724;2023-07-31T02:49:33;4.57;;;2.70;;
81591;SDS011;71014;53.394;6.724;2023-07-31T02:51:59;2.78;;;2.05;;
81591;SDS011;71014;53.394;6.724;2023-07-31T02:54:25;3.42;;;2.75;;
81591;SDS011;71014;53.394;6.724;2023-07-31T02:56:52;2.85;;;2.28;;
81591;SDS011;71014;53.394;6.724;2023-07-31T02:59:18;4.20;;;2.50;;
81591;SDS011;71014;53.394;6.724;2023-07-31T03:01:44;4.22;;;2.67;;
81591;SDS011;71014;53.394;6.724;2023-07-31T03:04:10;3.75;;;2.42;;
81591;SDS011;71014;53.394;6.724;2023-07-31T03:06:36;4.00;;;2.47;;
81591;SDS011;71014;53.394;6.724;2023-07-31T03:09:02;4.07;;;2.40;;
81591;SDS011;71014;53.394;6.724;2023-07-31T03:11:28;4.50;;;2.63;;
81591;SDS011;71014;53.394;6.724;2023-07-31T03:13:54;2.67;;;2.35;;
81591;SDS011;71014;53.394;6.724;2023-07-31T03:16:20;3.25;;;2.10;;
81591;SDS011;71014;53.394;6.724;2023-07-31T03:18:46;3.72;;;2.60;;
81591;SDS011;71014;53.394;6.724;2023-07-31T03:21:12;3.13;;;2.22;;
81591;SDS011;71014;53.394;6.724;2023-07-31T03:23:38;3.00;;;2.35;;
81591;SDS011;71014;53.394;6.724;2023-07-31T03:26:06;4.05;;;2.53;;
81591;SDS011;71014;53.394;6.724;2023-07-31T03:28:32;5.20;;;2.42;;
81591;SDS011;71014;53.394;6.724;2023-07-31T03:30:58;2.38;;;2.08;;
81591;SDS011;71014;53.394;6.724;2023-07-31T03:33:24;3.78;;;1.90;;
81591;SDS011;71014;53.394;6.724;2023-07-31T03:35:50;2.75;;;2.28;;
81591;SDS011;71014;53.394;6.724;2023-07-31T03:38:17;2.55;;;2.13;;
81591;SDS011;71014;53.394;6.724;2023-07-31T03:40:42;2.92;;;2.00;;
81591;SDS011;71014;53.394;6.724;2023-07-31T03:43:09;3.45;;;2.00;;
81591;SDS011;71014;53.394;6.724;2023-07-31T03:45:35;3.08;;;2.60;;
81591;SDS011;71014;53.394;6.724;2023-07-31T03:48:01;2.17;;;1.88;;
81591;SDS011;71014;53.394;6.724;2023-07-31T03:50:27;2.45;;;1.90;;
81591;SDS011;71014;53.394;6.724;2023-07-31T03:52:53;3.45;;;1.85;;
81591;SDS011;71014;53.394;6.724;2023-07-31T03:55:19;9.90;;;2.42;;
81591;SDS011;71014;53.394;6.724;2023-07-31T03:57:46;4.38;;;1.92;;
81591;SDS011;71014;53.394;6.724;2023-07-31T04:00:12;3.50;;;2.05;;
81591;SDS011;71014;53.394;6.724;2023-07-31T04:02:38;4.35;;;2.00;;
81591;SDS011;71014;53.394;6.724;2023-07-31T04:05:04;2.10;;;1.90;;
81591;SDS011;71014;53.394;6.724;2023-07-31T04:07:31;2.58;;;1.80;;
81591;SDS011;71014;53.394;6.724;2023-07-31T04:09:57;2.80;;;1.55;;
81591;SDS011;71014;53.394;6.724;2023-07-31T04:12:23;3.80;;;1.73;;
81591;SDS011;71014;53.394;6.724;2023-07-31T04:14:49;2.38;;;1.90;;
81591;SDS011;71014;53.394;6.724;2023-07-31T04:17:17;2.72;;;1.88;;
81591;SDS011;71014;53.394;6.724;2023-07-31T04:19:43;2.20;;;1.90;;
81591;SDS011;71014;53.394;6.724;2023-07-31T04:22:09;2.72;;;1.73;;
81591;SDS011;71014;53.394;6.724;2023-07-31T04:24:35;2.60;;;1.90;;
81591;SDS011;71014;53.394;6.724;2023-07-31T04:27:01;2.03;;;1.80;;
81591;SDS011;71014;53.394;6.724;2023-07-31T04:29:27;1.73;;;1.58;;
81591;SDS011;71014;53.394;6.724;2023-07-31T04:31:53;2.15;;;1.48;;
81591;SDS011;71014;53.394;6.724;2023-07-31T04:34:19;2.33;;;1.55;;
81591;SDS011;71014;53.394;6.724;2023-07-31T04:36:45;1.42;;;1.00;;
81591;SDS011;71014;53.394;6.724;2023-07-31T04:39:11;1.77;;;1.15;;
81591;SDS011;71014;53.394;6.724;2023-07-31T04:41:37;2.45;;;1.70;;
81591;SDS011;71014;53.394;6.724;2023-07-31T04:44:03;1.10;;;0.88;;
81591;SDS011;71014;53.394;6.724;2023-07-31T04:46:29;1.20;;;0.98;;
81591;SDS011;71014;53.394;6.724;2023-07-31T04:48:56;2.33;;;1.15;;
81591;SDS011;71014;53.394;6.724;2023-07-31T04:51:22;2.15;;;1.05;;
81591;SDS011;71014;53.394;6.724;2023-07-31T04:53:48;4.28;;;1.25;;
81591;SDS011;71014;53.394;6.724;2023-07-31T04:56:14;5.93;;;0.98;;
81591;SDS011;71014;53.394;6.724;2023-07-31T04:58:41;3.13;;;1.10;;
81591;SDS011;71014;53.394;6.724;2023-07-31T05:01:07;2.75;;;0.95;;
81591;SDS011;71014;53.394;6.724;2023-07-31T05:03:33;1.58;;;1.00;;
81591;SDS011;71014;53.394;6.724;2023-07-31T05:05:59;2.88;;;1.33;;
81591;SDS011;71014;53.394;6.724;2023-07-31T05:08:25;1.27;;;0.98;;
81591;SDS011;71014;53.394;6.724;2023-07-31T05:10:51;1.33;;;1.02;;
81591;SDS011;71014;53.394;6.724;2023-07-31T05:13:17;2.13;;;1.20;;
81591;SDS011;71014;53.394;6.724;2023-07-31T05:15:43;2.65;;;1.48;;
81591;SDS011;71014;53.394;6.724;2023-07-31T05:18:09;1.48;;;1.17;;
81591;SDS011;71014;53.394;6.724;2023-07-31T05:20:35;3.10;;;1.35;;
81591;SDS011;71014;53.394;6.724;2023-07-31T05:23:01;2.67;;;1.48;;
81591;SDS011;71014;53.394;6.724;2023-07-31T05:25:27;1.25;;;1.10;;
81591;SDS011;71014;53.394;6.724;2023-07-31T05:27:53;3.25;;;1.30;;
81591;SDS011;71014;53.394;6.724;2023-07-31T05:30:19;2.30;;;1.13;;
81591;SDS011;71014;53.394;6.724;2023-07-31T05:32:46;2.65;;;1.00;;
81591;SDS011;71014;53.394;6.724;2023-07-31T05:35:12;3.33;;;1.20;;
81591;SDS011;71014;53.394;6.724;2023-07-31T05:37:38;3.97;;;1.15;;
81591;SDS011;71014;53.394;6.724;2023-07-31T05:40:04;1.23;;;0.70;;
81591;SDS011;71014;53.394;6.724;2023-07-31T05:42:30;2.17;;;1.02;;
81591;SDS011;71014;53.394;6.724;2023-07-31T05:44:56;1.60;;;1.40;;
81591;SDS011;71014;53.394;6.724;2023-07-31T05:47:22;1.65;;;1.00;;
81591;SDS011;71014;53.394;6.724;2023-07-31T05:49:48;1.90;;;1.15;;
81591;SDS011;71014;53.394;6.724;2023-07-31T05:52:17;2.85;;;1.20;;
81591;SDS011;71014;53.394;6.724;2023-07-31T05:54:43;1.25;;;1.00;;
81591;SDS011;71014;53.394;6.724;2023-07-31T05:57:10;1.50;;;0.90;;
81591;SDS011;71014;53.394;6.724;2023-07-31T05:59:37;2.28;;;1.05;;
81591;SDS011;71014;53.394;6.724;2023-07-31T06:02:03;1.98;;;1.20;;
81591;SDS011;71014;53.394;6.724;2023-07-31T06:04:29;1.60;;;0.80;;
81591;SDS011;71014;53.394;6.724;2023-07-31T06:06:56;2.40;;;1.00;;
81591;SDS011;71014;53.394;6.724;2023-07-31T06:09:22;1.30;;;1.00;;
81591;SDS011;71014;53.394;6.724;2023-07-31T06:11:48;1.10;;;0.77;;
81591;SDS011;71014;53.394;6.724;2023-07-31T06:14:14;1.50;;;0.93;;
81591;SDS011;71014;53.394;6.724;2023-07-31T06:16:40;1.25;;;0.88;;
81591;SDS011;71014;53.394;6.724;2023-07-31T06:19:06;2.80;;;1.02;;
81591;SDS011;71014;53.394;6.724;2023-07-31T06:21:33;1.55;;;0.73;;
81591;SDS011;71014;53.394;6.724;2023-07-31T06:23:59;1.13;;;0.68;;
81591;SDS011;71014;53.394;6.724;2023-07-31T06:26:24;0.70;;;0.50;;
81591;SDS011;71014;53.394;6.724;2023-07-31T06:28:50;1.67;;;0.90;;
81591;SDS011;71014;53.394;6.724;2023-07-31T06:31:16;2.00;;;0.90;;
81591;SDS011;71014;53.394;6.724;2023-07-31T06:33:45;0.73;;;0.70;;
81591;SDS011;71014;53.394;6.724;2023-07-31T06:36:11;0.98;;;0.88;;
81591;SDS011;71014;53.394;6.724;2023-07-31T06:38:37;1.13;;;0.70;;
81591;SDS011;71014;53.394;6.724;2023-07-31T06:41:03;0.90;;;0.70;;
81591;SDS011;71014;53.394;6.724;2023-07-31T06:43:29;1.20;;;0.60;;
81591;SDS011;71014;53.394;6.724;2023-07-31T06:45:55;0.57;;;0.52;;
81591;SDS011;71014;53.394;6.724;2023-07-31T06:48:21;1.30;;;0.63;;
81591;SDS011;71014;53.394;6.724;2023-07-31T06:50:47;0.73;;;0.63;;
81591;SDS011;71014;53.394;6.724;2023-07-31T06:53:13;1.10;;;0.70;;
81591;SDS011;71014;53.394;6.724;2023-07-31T06:55:39;0.70;;;0.50;;
81591;SDS011;71014;53.394;6.724;2023-07-31T06:58:05;2.90;;;1.02;;
81591;SDS011;71014;53.394;6.724;2023-07-31T07:00:31;1.55;;;0.60;;
81591;SDS011;71014;53.394;6.724;2023-07-31T07:02:58;1.85;;;1.30;;
81591;SDS011;71014;53.394;6.724;2023-07-31T07:05:24;1.05;;;0.80;;
81591;SDS011;71014;53.394;6.724;2023-07-31T07:07:50;1.67;;;0.93;;
81591;SDS011;71014;53.394;6.724;2023-07-31T07:10:17;1.23;;;0.70;;
81591;SDS011;71014;53.394;6.724;2023-07-31T07:12:43;1.95;;;0.80;;
81591;SDS011;71014;53.394;6.724;2023-07-31T07:15:09;0.85;;;0.70;;
81591;SDS011;71014;53.394;6.724;2023-07-31T07:17:35;1.00;;;0.70;;
81591;SDS011;71014;53.394;6.724;2023-07-31T07:20:01;2.83;;;0.90;;
81591;SDS011;71014;53.394;6.724;2023-07-31T07:24:54;1.20;;;0.95;;
81591;SDS011;71014;53.394;6.724;2023-07-31T07:27:20;2.17;;;1.20;;
81591;SDS011;71014;53.394;6.724;2023-07-31T07:29:46;1.88;;;1.00;;
81591;SDS011;71014;53.394;6.724;2023-07-31T07:32:12;2.15;;;0.82;;
81591;SDS011;71014;53.394;6.724;2023-07-31T07:34:38;3.55;;;1.10;;
81591;SDS011;71014;53.394;6.724;2023-07-31T07:37:04;3.35;;;1.42;;
81591;SDS011;71014;53.394;6.724;2023-07-31T07:39:30;5.60;;;1.80;;
81591;SDS011;71014;53.394;6.724;2023-07-31T07:41:56;6.72;;;2.15;;
81591;SDS011;71014;53.394;6.724;2023-07-31T07:44:22;7.07;;;2.60;;
81591;SDS011;71014;53.394;6.724;2023-07-31T07:46:48;4.28;;;2.40;;
81591;SDS011;71014;53.394;6.724;2023-07-31T07:49:14;6.10;;;2.53;;
81591;SDS011;71014;53.394;6.724;2023-07-31T07:51:40;8.40;;;2.90;;
81591;SDS011;71014;53.394;6.724;2023-07-31T07:54:06;7.43;;;2.90;;
81591;SDS011;71014;53.394;6.724;2023-07-31T07:56:32;9.70;;;3.17;;
81591;SDS011;71014;53.394;6.724;2023-07-31T07:59:01;12.57;;;3.67;;
81591;SDS011;71014;53.394;6.724;2023-07-31T08:01:27;11.27;;;3.50;;
81591;SDS011;71014;53.394;6.724;2023-07-31T08:03:53;5.85;;;2.40;;
81591;SDS011;71014;53.394;6.724;2023-07-31T08:06:19;8.10;;;3.05;;
81591;SDS011;71014;53.394;6.724;2023-07-31T08:08:45;4.80;;;2.00;;
81591;SDS011;71014;53.394;6.724;2023-07-31T08:11:11;6.50;;;3.13;;
81591;SDS011;71014;53.394;6.724;2023-07-31T08:13:37;8.13;;;3.42;;
81591;SDS011;71014;53.394;6.724;2023-07-31T08:16:03;7.78;;;2.30;;
81591;SDS011;71014;53.394;6.724;2023-07-31T08:18:30;5.55;;;1.92;;
81591;SDS011;71014;53.394;6.724;2023-07-31T08:20:57;7.63;;;2.40;;
81591;SDS011;71014;53.394;6.724;2023-07-31T08:23:23;6.05;;;2.70;;
81591;SDS011;71014;53.394;6.724;2023-07-31T08:25:49;6.05;;;2.17;;
81591;SDS011;71014;53.394;6.724;2023-07-31T08:28:15;5.45;;;2.45;;
81591;SDS011;71014;53.394;6.724;2023-07-31T08:30:42;6.18;;;2.20;;
81591;SDS011;71014;53.394;6.724;2023-07-31T08:33:08;5.10;;;2.72;;
81591;SDS011;71014;53.394;6.724;2023-07-31T08:35:34;4.80;;;2.80;;
81591;SDS011;71014;53.394;6.724;2023-07-31T08:38:00;9.25;;;2.08;;
81591;SDS011;71014;53.394;6.724;2023-07-31T08:40:26;2.15;;;1.38;;
81591;SDS011;71014;53.394;6.724;2023-07-31T08:42:53;1.45;;;0.90;;
81591;SDS011;71014;53.394;6.724;2023-07-31T08:45:21;1.20;;;0.60;;
81591;SDS011;71014;53.394;6.724;2023-07-31T08:47:48;1.20;;;0.50;;
81591;SDS011;71014;53.394;6.724;2023-07-31T08:50:16;0.93;;;0.50;;
81591;SDS011;71014;53.394;6.724;2023-07-31T08:52:42;0.65;;;0.43;;
81591;SDS011;71014;53.394;6.724;2023-07-31T08:55:08;1.55;;;0.82;;
81591;SDS011;71014;53.394;6.724;2023-07-31T08:57:35;0.75;;;0.50;;
81591;SDS011;71014;53.394;6.724;2023-07-31T09:00:02;1.52;;;0.70;;
81591;SDS011;71014;53.394;6.724;2023-07-31T09:05:10;1.55;;;0.77;;
81591;SDS011;71014;53.394;6.724;2023-07-31T09:07:37;0.70;;;0.50;;
81591;SDS011;71014;53.394;6.724;2023-07-31T09:10:03;0.40;;;0.40;;
81591;SDS011;71014;53.394;6.724;2023-07-31T09:14:56;1.73;;;0.52;;
81591;SDS011;71014;53.394;6.724;2023-07-31T09:17:32;1.83;;;0.75;;
81591;SDS011;71014;53.394;6.724;2023-07-31T09:19:58;0.85;;;0.40;;
81591;SDS011;71014;53.394;6.724;2023-07-31T09:25:23;1.63;;;0.57;;
81591;SDS011;71014;53.394;6.724;2023-07-31T09:30:15;1.90;;;0.60;;
81591;SDS011;71014;53.394;6.724;2023-07-31T09:32:42;2.45;;;0.70;;
81591;SDS011;71014;53.394;6.724;2023-07-31T09:35:21;1.02;;;0.52;;
81591;SDS011;71014;53.394;6.724;2023-07-31T09:37:51;0.68;;;0.40;;
81591;SDS011;71014;53.394;6.724;2023-07-31T09:40:27;0.80;;;0.60;;
81591;SDS011;71014;53.394;6.724;2023-07-31T09:42:54;0.95;;;0.60;;
81591;SDS011;71014;53.394;6.724;2023-07-31T09:45:22;2.05;;;0.40;;
81591;SDS011;71014;53.394;6.724;2023-07-31T09:47:48;0.52;;;0.50;;
81591;SDS011;71014;53.394;6.724;2023-07-31T09:50:14;0.40;;;0.40;;
81591;SDS011;71014;53.394;6.724;2023-07-31T09:52:43;0.47;;;0.45;;
81591;SDS011;71014;53.394;6.724;2023-07-31T09:55:09;0.70;;;0.50;;
81591;SDS011;71014;53.394;6.724;2023-07-31T09:57:39;0.40;;;0.40;;
81591;SDS011;71014;53.394;6.724;2023-07-31T10:00:07;0.35;;;0.35;;
81591;SDS011;71014;53.394;6.724;2023-07-31T10:02:34;0.70;;;0.32;;
81591;SDS011;71014;53.394;6.724;2023-07-31T10:05:01;0.47;;;0.45;;
81591;SDS011;71014;53.394;6.724;2023-07-31T10:07:28;0.20;;;0.20;;
81591;SDS011;71014;53.394;6.724;2023-07-31T10:09:56;0.70;;;0.20;;
81591;SDS011;71014;53.394;6.724;2023-07-31T10:12:24;0.40;;;0.40;;
81591;SDS011;71014;53.394;6.724;2023-07-31T10:14:53;1.25;;;0.30;;
81591;SDS011;71014;53.394;6.724;2023-07-31T10:17:20;0.30;;;0.20;;
81591;SDS011;71014;53.394;6.724;2023-07-31T10:19:46;0.63;;;0.30;;
81591;SDS011;71014;53.394;6.724;2023-07-31T10:22:13;0.93;;;0.47;;
81591;SDS011;71014;53.394;6.724;2023-07-31T10:24:39;0.40;;;0.40;;
81591;SDS011;71014;53.394;6.724;2023-07-31T10:27:07;0.65;;;0.60;;
81591;SDS011;71014;53.394;6.724;2023-07-31T10:29:33;2.10;;;0.40;;
81591;SDS011;71014;53.394;6.724;2023-07-31T10:31:59;1.40;;;0.63;;
81591;SDS011;71014;53.394;6.724;2023-07-31T10:37:18;0.80;;;0.20;;
81591;SDS011;71014;53.394;6.724;2023-07-31T10:39:38;2.15;;;0.50;;
81591;SDS011;71014;53.394;6.724;2023-07-31T10:42:11;0.80;;;0.60;;
81591;SDS011;71014;53.394;6.724;2023-07-31T10:47:04;1.67;;;0.60;;
81591;SDS011;71014;53.394;6.724;2023-07-31T10:49:30;0.98;;;0.60;;
81591;SDS011;71014;53.394;6.724;2023-07-31T10:51:56;1.27;;;0.70;;
81591;SDS011;71014;53.394;6.724;2023-07-31T10:54:22;2.15;;;0.90;;
81591;SDS011;71014;53.394;6.724;2023-07-31T10:56:52;1.92;;;0.90;;
81591;SDS011;71014;53.394;6.724;2023-07-31T10:59:18;5.00;;;1.02;;
81591;SDS011;71014;53.394;6.724;2023-07-31T11:02:03;1.95;;;0.80;;
81591;SDS011;71014;53.394;6.724;2023-07-31T11:04:29;3.17;;;1.10;;
81591;SDS011;71014;53.394;6.724;2023-07-31T11:06:57;2.65;;;1.42;;
81591;SDS011;71014;53.394;6.724;2023-07-31T11:09:24;2.95;;;0.98;;
81591;SDS011;71014;53.394;6.724;2023-07-31T11:11:53;1.33;;;0.63;;
81591;SDS011;71014;53.394;6.724;2023-07-31T11:14:20;4.05;;;1.35;;
81591;SDS011;71014;53.394;6.724;2023-07-31T11:16:46;2.17;;;0.90;;
81591;SDS011;71014;53.394;6.724;2023-07-31T11:19:20;1.88;;;0.70;;
81591;SDS011;71014;53.394;6.724;2023-07-31T11:21:47;1.25;;;0.88;;
81591;SDS011;71014;53.394;6.724;2023-07-31T11:24:13;2.55;;;1.55;;
81591;SDS011;71014;53.394;6.724;2023-07-31T11:26:47;3.67;;;1.00;;
81591;SDS011;71014;53.394;6.724;2023-07-31T11:29:13;3.03;;;1.00;;
81591;SDS011;71014;53.394;6.724;2023-07-31T11:31:43;3.13;;;1.40;;
81591;SDS011;71014;53.394;6.724;2023-07-31T11:34:09;2.50;;;0.93;;
81591;SDS011;71014;53.394;6.724;2023-07-31T11:36:35;3.47;;;1.10;;
81591;SDS011;71014;53.394;6.724;2023-07-31T11:39:07;2.65;;;1.05;;
81591;SDS011;71014;53.394;6.724;2023-07-31T11:41:33;3.05;;;1.30;;
81591;SDS011;71014;53.394;6.724;2023-07-31T11:44:00;3.72;;;1.10;;
81591;SDS011;71014;53.394;6.724;2023-07-31T11:46:26;2.20;;;1.05;;
81591;SDS011;71014;53.394;6.724;2023-07-31T11:48:52;1.70;;;1.10;;
81591;SDS011;71014;53.394;6.724;2023-07-31T11:51:24;4.10;;;1.25;;
81591;SDS011;71014;53.394;6.724;2023-07-31T11:53:52;4.20;;;0.80;;
81591;SDS011;71014;53.394;6.724;2023-07-31T11:56:19;3.20;;;1.30;;
81591;SDS011;71014;53.394;6.724;2023-07-31T11:58:46;3.22;;;1.02;;
81591;SDS011;71014;53.394;6.724;2023-07-31T12:01:13;4.10;;;1.30;;
81591;SDS011;71014;53.394;6.724;2023-07-31T12:03:40;2.05;;;1.20;;
81591;SDS011;71014;53.394;6.724;2023-07-31T12:06:07;2.97;;;1.10;;
81591;SDS011;71014;53.394;6.724;2023-07-31T12:08:33;4.50;;;1.77;;
81591;SDS011;71014;53.394;6.724;2023-07-31T12:11:03;2.25;;;1.30;;
81591;SDS011;71014;53.394;6.724;2023-07-31T12:13:30;3.42;;;1.20;;
81591;SDS011;71014;53.394;6.724;2023-07-31T12:15:57;3.88;;;1.20;;
81591;SDS011;71014;53.394;6.724;2023-07-31T12:18:25;4.45;;;1.05;;
81591;SDS011;71014;53.394;6.724;2023-07-31T12:20:58;4.78;;;1.30;;
81591;SDS011;71014;53.394;6.724;2023-07-31T12:23:28;3.25;;;1.17;;
81591;SDS011;71014;53.394;6.724;2023-07-31T12:26:05;2.70;;;1.30;;
81591;SDS011;71014;53.394;6.724;2023-07-31T12:28:35;2.83;;;1.45;;
81591;SDS011;71014;53.394;6.724;2023-07-31T12:31:03;2.63;;;1.10;;
81591;SDS011;71014;53.394;6.724;2023-07-31T12:33:33;2.88;;;1.02;;
81591;SDS011;71014;53.394;6.724;2023-07-31T12:36:03;2.33;;;1.15;;
81591;SDS011;71014;53.394;6.724;2023-07-31T12:38:30;1.75;;;1.20;;
81591;SDS011;71014;53.394;6.724;2023-07-31T12:40:56;2.65;;;1.10;;
81591;SDS011;71014;53.394;6.724;2023-07-31T12:43:22;4.90;;;0.95;;
81591;SDS011;71014;53.394;6.724;2023-07-31T12:45:48;2.67;;;1.33;;
81591;SDS011;71014;53.394;6.724;2023-07-31T12:50:40;2.70;;;1.00;;
81591;SDS011;71014;53.394;6.724;2023-07-31T12:53:06;2.67;;;1.05;;
81591;SDS011;71014;53.394;6.724;2023-07-31T12:55:32;3.40;;;1.40;;
81591;SDS011;71014;53.394;6.724;2023-07-31T12:57:59;2.70;;;1.20;;
81591;SDS011;71014;53.394;6.724;2023-07-31T13:02:51;2.03;;;1.05;;
81591;SDS011;71014;53.394;6.724;2023-07-31T13:05:17;2.60;;;1.73;;
81591;SDS011;71014;53.394;6.724;2023-07-31T13:07:45;2.22;;;1.00;;
81591;SDS011;71014;53.394;6.724;2023-07-31T13:10:11;1.42;;;0.93;;
81591;SDS011;71014;53.394;6.724;2023-07-31T13:12:37;1.02;;;0.70;;
81591;SDS011;71014;53.394;6.724;2023-07-31T13:15:04;2.25;;;0.90;;
81591;SDS011;71014;53.394;6.724;2023-07-31T13:17:30;2.80;;;0.85;;
81591;SDS011;71014;53.394;6.724;2023-07-31T13:19:56;1.88;;;0.60;;
81591;SDS011;71014;53.394;6.724;2023-07-31T13:22:22;1.02;;;0.70;;
81591;SDS011;71014;53.394;6.724;2023-07-31T13:24:48;1.63;;;0.68;;
81591;SDS011;71014;53.394;6.724;2023-07-31T13:27:14;2.45;;;1.05;;
81591;SDS011;71014;53.394;6.724;2023-07-31T13:29:45;1.17;;;0.75;;
81591;SDS011;71014;53.394;6.724;2023-07-31T13:32:11;2.20;;;1.20;;
81591;SDS011;71014;53.394;6.724;2023-07-31T13:34:37;1.90;;;1.10;;
81591;SDS011;71014;53.394;6.724;2023-07-31T13:37:04;1.67;;;1.02;;
81591;SDS011;71014;53.394;6.724;2023-07-31T13:39:31;1.58;;;1.20;;
81591;SDS011;71014;53.394;6.724;2023-07-31T13:41:58;2.58;;;1.17;;
81591;SDS011;71014;53.394;6.724;2023-07-31T13:44:24;2.72;;;1.20;;
81591;SDS011;71014;53.394;6.724;2023-07-31T13:46:50;4.00;;;1.15;;
81591;SDS011;71014;53.394;6.724;2023-07-31T13:51:42;3.83;;;1.50;;
81591;SDS011;71014;53.394;6.724;2023-07-31T13:54:08;2.63;;;1.05;;
81591;SDS011;71014;53.394;6.724;2023-07-31T13:56:36;1.80;;;1.17;;
81591;SDS011;71014;53.394;6.724;2023-07-31T14:01:28;3.38;;;1.20;;
81591;SDS011;71014;53.394;6.724;2023-07-31T14:03:54;3.65;;;1.20;;
81591;SDS011;71014;53.394;6.724;2023-07-31T14:06:20;4.38;;;1.73;;
81591;SDS011;71014;53.394;6.724;2023-07-31T14:08:47;4.43;;;1.30;;
81591;SDS011;71014;53.394;6.724;2023-07-31T14:11:12;4.10;;;1.50;;
81591;SDS011;71014;53.394;6.724;2023-07-31T14:13:38;4.03;;;1.65;;
81591;SDS011;71014;53.394;6.724;2023-07-31T14:16:05;6.28;;;1.50;;
81591;SDS011;71014;53.394;6.724;2023-07-31T14:18:31;2.83;;;1.38;;
81591;SDS011;71014;53.394;6.724;2023-07-31T14:20:57;5.93;;;1.40;;
81591;SDS011;71014;53.394;6.724;2023-07-31T14:23:23;3.75;;;1.40;;
81591;SDS011;71014;53.394;6.724;2023-07-31T14:25:49;4.97;;;1.65;;
81591;SDS011;71014;53.394;6.724;2023-07-31T14:28:15;3.30;;;1.48;;
81591;SDS011;71014;53.394;6.724;2023-07-31T14:30:41;3.20;;;1.38;;
81591;SDS011;71014;53.394;6.724;2023-07-31T14:33:07;5.35;;;2.00;;
81591;SDS011;71014;53.394;6.724;2023-07-31T14:35:34;2.75;;;1.45;;
81591;SDS011;71014;53.394;6.724;2023-07-31T14:38:00;5.82;;;1.88;;
81591;SDS011;71014;53.394;6.724;2023-07-31T14:40:26;4.88;;;1.88;;
81591;SDS011;71014;53.394;6.724;2023-07-31T14:42:52;5.93;;;2.03;;
81591;SDS011;71014;53.394;6.724;2023-07-31T14:45:18;5.30;;;1.88;;
81591;SDS011;71014;53.394;6.724;2023-07-31T14:47:44;5.13;;;1.85;;
81591;SDS011;71014;53.394;6.724;2023-07-31T14:50:10;3.90;;;1.83;;
81591;SDS011;71014;53.394;6.724;2023-07-31T14:52:36;3.58;;;1.70;;
81591;SDS011;71014;53.394;6.724;2023-07-31T14:57:28;4.47;;;1.65;;
81591;SDS011;71014;53.394;6.724;2023-07-31T14:59:54;3.65;;;2.28;;
81591;SDS011;71014;53.394;6.724;2023-07-31T15:02:20;7.35;;;2.15;;
81591;SDS011;71014;53.394;6.724;2023-07-31T15:04:46;5.90;;;2.10;;
81591;SDS011;71014;53.394;6.724;2023-07-31T15:07:12;4.20;;;1.67;;
81591;SDS011;71014;53.394;6.724;2023-07-31T15:09:39;5.40;;;1.83;;
81591;SDS011;71014;53.394;6.724;2023-07-31T15:12:05;4.10;;;1.80;;
81591;SDS011;71014;53.394;6.724;2023-07-31T15:14:31;4.82;;;2.20;;
81591;SDS011;71014;53.394;6.724;2023-07-31T15:16:58;3.80;;;2.00;;
81591;SDS011;71014;53.394;6.724;2023-07-31T15:19:24;3.30;;;1.80;;
81591;SDS011;71014;53.394;6.724;2023-07-31T15:21:50;4.25;;;2.30;;
81591;SDS011;71014;53.394;6.724;2023-07-31T15:24:16;6.38;;;2.55;;